Washington Express — WDD3826 — position and weather

sailwx.info

Track history (hours):
 
Tides and Currents Weather Stations Pressure Air Temp Water Temp Dewpoint Dewpoint Depression Visibility Wind Speed Wind Dir Waves Ship Positions

Washington Express

Owner: Marine Transport Management - Nick Orfanidis, Jacksonville, FL. More information available from US FCC via Universal Licensing System.

Last reported at 2018-Feb-25 12:00 UTC. Time now 2018-Feb-25 19:35 UTC.
Position N 47°06' W 036°24'.

Type: Ship (hazmat cat A). MMSI: 367136710.

Wind from 100 at 17 knots

Barometer 995.5 mb
Air temperature 8.0 ° C
Visibility: greater than 10.8 NM
Dewpoint 0.6 ° C
Water temperature 12.0 ° C

Date/timePositionNaut miles runAvg speedWind from/ knotsBaromVisibWave heightAir tempDewpointWater temp
2018-Feb-25 12:00N 47°06' W 036°24'12320.4 100 / 17995.510.8 8.0 0.612.0
2018-Feb-25 06:00N 47°12' W 033°24'23319.4 350 / 14999.8 6.0-2.214.0
2018-Feb-24 18:00N 47°06' W 027°42'10717.8 300 / 25990.910.8 10.0 3.113.0
2018-Feb-24 12:00N 46°54' W 025°06'45418.9 110 / 17990.710.8 14.0 8.113.0
2018-Feb-23 12:00N 47°42' W 014°00'42319.8 220 / 251003.910.8 11.0 6.813.0
2018-Feb-22 14:37N 49°50' W 003°49'322.0
2018-Feb-22 14:30N 49°50' W 003°45'1121.7
2018-Feb-22 14:00N 49°54' W 003°29'1121.3
2018-Feb-22 13:31N 49°55' W 003°13'1020.6
2018-Feb-22 13:01N 49°57' W 002°57'1019.9
2018-Feb-22 12:30N 49°60' W 002°42'1019.2
2018-Feb-22 12:00N 50°02' W 002°28'1618.4
2018-Feb-22 11:10N 50°06' W 002°04'318.3
2018-Feb-22 11:00N 50°07' W 001°60'918.6
2018-Feb-22 10:30N 50°09' W 001°46'1019.4
2018-Feb-22 10:00N 50°12' W 001°32'1020.1
2018-Feb-22 09:30N 50°15' W 001°16'3321.9
2018-Feb-22 08:00N 50°25' W 000°27'1122.4
2018-Feb-22 07:30N 50°28' W 000°11'1122.4
2018-Feb-22 07:00N 50°31' E 000°06'1122.2
2018-Feb-22 06:30N 50°34' E 000°23'1121.7
2018-Feb-22 06:00N 50°39' E 000°39'1121.3
2018-Feb-22 05:30N 50°45' E 000°52'1020.9
2018-Feb-22 05:00N 50°50' E 001°06'1019.8
2018-Feb-22 04:30N 50°56' E 001°20'919.0
2018-Feb-22 04:00N 51°03' E 001°29'1019.3
2018-Feb-22 03:30N 51°10' E 001°39'1019.1
2018-Feb-22 03:00N 51°18' E 001°48'1020.5
2018-Feb-22 02:30N 51°28' E 001°53'1020.3
2018-Feb-22 02:00N 51°37' E 001°47'1019.1
2018-Feb-22 01:30N 51°47' E 001°43'5 9.0
2018-Feb-22 01:00N 51°50' E 001°39'3 6.8
2018-Feb-22 00:30N 51°49' E 001°33'611.4
2018-Feb-22 00:00N 51°44' E 001°30'611.5
2018-Feb-21 23:30N 51°39' E 001°24'611.9
2018-Feb-21 23:00N 51°35' E 001°17'612.5
2018-Feb-21 22:30N 51°32' E 001°08'612.8
2018-Feb-21 22:00N 51°29' E 000°59'510.9
2018-Feb-21 21:30N 51°29' E 000°50'612.2
2018-Feb-21 21:00N 51°30' E 000°41'612.1
2018-Feb-21 20:30N 51°30' E 000°31'1 1.6
2018-Feb-21 20:00N 51°30' E 000°29'0 0.0
2018-Feb-21 19:30N 51°30' E 000°29'0 0.0
2018-Feb-21 19:00N 51°30' E 000°29'0 0.0
2018-Feb-21 18:30N 51°30' E 000°29'0 0.0
2018-Feb-21 18:00N 51°30' E 000°29'0 0.0
2018-Feb-21 17:30N 51°30' E 000°29'0 0.0
2018-Feb-21 17:00N 51°30' E 000°29'0 0.0
2018-Feb-21 16:30N 51°30' E 000°29'0 0.0
2018-Feb-21 16:00N 51°30' E 000°29'0 0.0
2018-Feb-21 15:31N 51°30' E 000°29'0 0.0
2018-Feb-21 15:00N 51°30' E 000°29'0 0.0
2018-Feb-21 14:30N 51°30' E 000°29'0 0.0
2018-Feb-21 14:00N 51°30' E 000°29'0 0.0
2018-Feb-21 13:30N 51°30' E 000°29'0 0.0
2018-Feb-21 13:00N 51°30' E 000°29'0 0.0
2018-Feb-21 12:31N 51°30' E 000°29'0 0.0
2018-Feb-21 12:00N 51°30' E 000°29'0 0.0
2018-Feb-21 11:30N 51°30' E 000°29'0 0.0
2018-Feb-21 11:00N 51°30' E 000°30'0 0.0
2018-Feb-21 10:30N 51°30' E 000°29'0 0.0
2018-Feb-21 10:00N 51°30' E 000°29'0 0.0
2018-Feb-21 09:30N 51°30' E 000°29'0 0.0
2018-Feb-21 09:00N 51°30' E 000°29'0 0.0
2018-Feb-21 08:30N 51°30' E 000°30'2 3.5
2018-Feb-21 08:00N 51°30' E 000°32'5 9.2
2018-Feb-21 07:30N 51°30' E 000°40'611.1
2018-Feb-21 07:00N 51°29' E 000°48'612.5
2018-Feb-21 06:30N 51°29' E 000°58'816.3
2018-Feb-21 06:00N 51°33' E 001°10'816.2
2018-Feb-21 05:30N 51°38' E 001°21'816.4
2018-Feb-21 05:00N 51°44' E 001°29'714.5
2018-Feb-21 04:31N 51°49' E 001°37'4 8.4
2018-Feb-21 04:01N 51°52' E 001°42'4 8.5
2018-Feb-21 03:31N 51°56' E 001°45'713.2
2018-Feb-21 03:00N 52°02' E 001°49'511.0
2018-Feb-21 02:30N 52°06' E 001°55'3 6.8
2018-Feb-21 02:01N 52°07' E 002°01'1 2.0
2018-Feb-21 01:30N 52°08' E 001°59'510.6
2018-Feb-21 01:00N 52°11' E 002°06'1 2.1
2018-Feb-21 00:30N 52°10' E 002°07'54 9.3
2018-Feb-20 18:42N 52°46' E 003°12'2 8.6
2018-Feb-20 18:29N 52°47' E 003°15'4 8.4
2018-Feb-20 17:59N 52°49' E 003°22'30 9.1
2018-Feb-20 14:43N 53°02' E 004°06'210.2
2018-Feb-20 14:30N 53°03' E 004°09'510.3
2018-Feb-20 14:00N 53°07' E 004°15'24 9.9
2018-Feb-20 11:36N 53°27' E 004°37'410.4
2018-Feb-20 11:14N 53°28' E 004°43'312.9
2018-Feb-20 11:00N 53°30' E 004°47'1915.3
2018-Feb-20 09:47N 53°37' E 005°16'1217.8
2018-Feb-20 09:07N 53°42' E 005°34'217.9
2018-Feb-20 08:59N 53°43' E 005°38'8317.8
2018-Feb-20 04:18N 53°51' E 007°58'516.0
2018-Feb-20 03:59N 53°50' E 008°06'815.9
2018-Feb-20 03:30N 53°44' E 008°15'714.3
2018-Feb-20 03:00N 53°39' E 008°24'511.0
2018-Feb-20 02:31N 53°36' E 008°31'1 1.3
2018-Feb-20 02:00N 53°35' E 008°32'0 0.0
2018-Feb-20 01:28N 53°35' E 008°32'0 0.0
2018-Feb-20 00:58N 53°35' E 008°32'0 0.0
2018-Feb-20 00:28N 53°35' E 008°32'0 0.0
2018-Feb-19 23:58N 53°35' E 008°32'0 0.0
2018-Feb-19 23:28N 53°35' E 008°32'0 0.0
2018-Feb-19 22:58N 53°35' E 008°32'0 0.0
2018-Feb-19 22:28N 53°35' E 008°32'0 0.0
2018-Feb-19 21:58N 53°35' E 008°32'0 0.0
2018-Feb-19 21:25N 53°35' E 008°32'0 0.0
2018-Feb-19 20:58N 53°35' E 008°32'0 0.0
2018-Feb-19 20:28N 53°35' E 008°32'0 0.0
2018-Feb-19 19:58N 53°35' E 008°32'0 0.0
2018-Feb-19 19:28N 53°35' E 008°32'0 0.0
2018-Feb-19 18:58N 53°35' E 008°32'0 0.0
2018-Feb-19 18:28N 53°35' E 008°32'0 0.0
2018-Feb-19 17:58N 53°35' E 008°32'0 0.0
2018-Feb-19 17:28N 53°35' E 008°32'0 0.0
2018-Feb-19 16:58N 53°35' E 008°32'0 0.0
2018-Feb-19 16:28N 53°35' E 008°32'0 0.0
2018-Feb-19 15:58N 53°35' E 008°32'0 0.0
2018-Feb-19 15:28N 53°35' E 008°32'0 0.0
2018-Feb-19 14:58N 53°35' E 008°32'0 0.0
2018-Feb-19 14:28N 53°35' E 008°32'0 0.0
2018-Feb-19 13:58N 53°35' E 008°32'0 0.0
2018-Feb-19 13:28N 53°35' E 008°32'0 0.0
2018-Feb-19 12:58N 53°35' E 008°32'0 0.0
2018-Feb-19 12:28N 53°35' E 008°32'0 0.0
2018-Feb-19 11:58N 53°35' E 008°32'0 0.0
2018-Feb-19 11:28N 53°35' E 008°32'0 0.0
2018-Feb-19 10:58N 53°35' E 008°32'0 0.0
2018-Feb-19 10:28N 53°35' E 008°32'0 0.0
2018-Feb-19 09:58N 53°35' E 008°32'0 0.0
2018-Feb-19 09:28N 53°35' E 008°32'1 2.6
2018-Feb-19 09:01N 53°36' E 008°30'510.7
2018-Feb-19 08:30N 53°39' E 008°24'816.1
2018-Feb-19 08:00N 53°45' E 008°13'816.5
2018-Feb-19 07:30N 53°50' E 008°03'915.3
2018-Feb-19 06:56N 53°53' E 007°49'15 1.5
2018-Feb-18 21:07N 54°02' E 007°29'0 0.0
2018-Feb-18 20:43N 54°02' E 007°29'0 0.0
2018-Feb-18 11:04N 54°02' E 007°29'0 0.0
2018-Feb-18 10:58N 54°02' E 007°29'0 0.0
2018-Feb-18 10:25N 54°02' E 007°29'0 0.0
2018-Feb-18 09:46N 54°02' E 007°29'88 2.4
2018-Feb-16 20:47N 53°32' E 005°10'716.7
2018-Feb-16 20:21N 53°29' E 004°59'616.6
2018-Feb-16 20:00N 53°26' E 004°51'1615.4
2018-Feb-16 18:58N 53°14' E 004°34'716.3
2018-Feb-16 18:30N 53°07' E 004°28'816.5
2018-Feb-16 18:00N 52°60' E 004°21'816.0
2018-Feb-16 17:28N 52°52' E 004°15'816.2
2018-Feb-16 17:00N 52°46' E 004°07'1016.0
2018-Feb-16 16:24N 52°39' E 003°57'716.1
2018-Feb-16 15:58N 52°34' E 003°49'816.2
2018-Feb-16 15:27N 52°27' E 003°40'816.4
2018-Feb-16 14:59N 52°21' E 003°32'816.5
2018-Feb-16 14:30N 52°15' E 003°24'916.4
2018-Feb-16 13:56N 52°08' E 003°14'1115.1
2018-Feb-16 13:11N 51°58' E 003°05'515.1
2018-Feb-16 12:52N 51°53' E 003°06'514.1
2018-Feb-16 12:30N 51°49' E 003°10'713.9
2018-Feb-16 12:00N 51°44' E 003°17'5 9.7
2018-Feb-16 11:30N 51°39' E 003°20'611.7
2018-Feb-16 11:00N 51°34' E 003°25'612.5
2018-Feb-16 10:30N 51°29' E 003°30'5 8.9
2018-Feb-16 10:00N 51°26' E 003°36'4 8.6
2018-Feb-16 09:30N 51°25' E 003°42'713.3
2018-Feb-16 09:00N 51°21' E 003°50'713.5
2018-Feb-16 08:30N 51°25' E 003°58'611.3
2018-Feb-16 08:01N 51°22' E 004°05'510.5
2018-Feb-16 07:30N 51°22' E 004°14'2 4.4
2018-Feb-16 07:01N 51°20' E 004°17'0 0.0
2018-Feb-16 06:26N 51°20' E 004°17'0 0.0
2018-Feb-16 06:01N 51°20' E 004°17'0 0.0
2018-Feb-16 05:22N 51°20' E 004°17'0 0.0
2018-Feb-16 04:59N 51°20' E 004°17'0 0.0
2018-Feb-16 04:31N 51°20' E 004°17'0 0.0
2018-Feb-16 04:00N 51°20' E 004°17'0 0.0
2018-Feb-16 03:31N 51°20' E 004°17'0 0.0
2018-Feb-16 03:00N 51°20' E 004°17'0 0.0
2018-Feb-16 02:28N 51°20' E 004°17'0 0.0
2018-Feb-16 02:00N 51°20' E 004°17'0 0.0
2018-Feb-16 01:30N 51°20' E 004°17'0 0.0
2018-Feb-16 00:55N 51°20' E 004°17'0 0.0
2018-Feb-16 00:30N 51°20' E 004°17'0 0.0
2018-Feb-16 00:01N 51°20' E 004°17'0 0.0
2018-Feb-15 23:28N 51°20' E 004°17'0 0.0
2018-Feb-15 23:00N 51°20' E 004°17'0 0.0
2018-Feb-15 22:30N 51°20' E 004°17'0 0.0
2018-Feb-15 22:00N 51°20' E 004°17'0 0.0
2018-Feb-15 21:29N 51°20' E 004°17'0 0.0
2018-Feb-15 20:59N 51°20' E 004°17'0 0.0
2018-Feb-15 20:27N 51°20' E 004°17'0 0.0
2018-Feb-15 19:51N 51°20' E 004°17'0 0.0
2018-Feb-15 19:31N 51°20' E 004°17'0 0.0
2018-Feb-15 19:00N 51°20' E 004°17'0 0.0
2018-Feb-15 18:30N 51°20' E 004°17'0 0.0
2018-Feb-15 17:58N 51°20' E 004°17'0 0.0
2018-Feb-15 17:24N 51°20' E 004°17'0 0.0
2018-Feb-15 17:00N 51°20' E 004°17'0 0.0
2018-Feb-15 16:31N 51°20' E 004°17'0 0.0
2018-Feb-15 16:01N 51°20' E 004°17'0 0.0
2018-Feb-15 15:24N 51°20' E 004°17'0 0.0
2018-Feb-15 14:58N 51°20' E 004°17'0 0.0
2018-Feb-15 14:27N 51°20' E 004°17'0 0.0
2018-Feb-15 13:59N 51°20' E 004°17'0 0.0
2018-Feb-15 13:26N 51°20' E 004°17'0 0.0
2018-Feb-15 13:00N 51°20' E 004°17'0 0.0
2018-Feb-15 12:30N 51°20' E 004°17'0 0.0
2018-Feb-15 12:00N 51°20' E 004°17'  
Track history (hours):
 
Tides and Currents Weather Stations Pressure Air Temp Water Temp Dewpoint Dewpoint Depression Visibility Wind Speed Wind Dir Waves Ship Positions

Washington Express

Owner: Marine Transport Management - Nick Orfanidis, Jacksonville, FL. More information available from US FCC via Universal Licensing System.

Last reported at 2018-Feb-25 12:00 UTC. Time now 2018-Feb-25 19:35 UTC.
Position N 47°06' W 036°24'.

Type: Ship (hazmat cat A). MMSI: 367136710.

Wind from 100 at 17 knots

Barometer 995.5 mb
Air temperature 8.0 ° C
Visibility: greater than 10.8 NM
Dewpoint 0.6 ° C
Water temperature 12.0 ° C

Date/timePositionNaut miles runAvg speedWind from/ knotsBaromVisibWave heightAir tempDewpointWater temp
2018-Feb-25 12:00N 47°06' W 036°24'12320.4 100 / 17995.510.8 8.0 0.612.0
2018-Feb-25 06:00N 47°12' W 033°24'23319.4 350 / 14999.8 6.0-2.214.0
2018-Feb-24 18:00N 47°06' W 027°42'10717.8 300 / 25990.910.8 10.0 3.113.0
2018-Feb-24 12:00N 46°54' W 025°06'45418.9 110 / 17990.710.8 14.0 8.113.0
2018-Feb-23 12:00N 47°42' W 014°00'42319.8 220 / 251003.910.8 11.0 6.813.0
2018-Feb-22 14:37N 49°50' W 003°49'322.0
2018-Feb-22 14:30N 49°50' W 003°45'1121.7
2018-Feb-22 14:00N 49°54' W 003°29'1121.3
2018-Feb-22 13:31N 49°55' W 003°13'1020.6
2018-Feb-22 13:01N 49°57' W 002°57'1019.9
2018-Feb-22 12:30N 49°60' W 002°42'1019.2
2018-Feb-22 12:00N 50°02' W 002°28'1618.4
2018-Feb-22 11:10N 50°06' W 002°04'318.3
2018-Feb-22 11:00N 50°07' W 001°60'918.6
2018-Feb-22 10:30N 50°09' W 001°46'1019.4
2018-Feb-22 10:00N 50°12' W 001°32'1020.1
2018-Feb-22 09:30N 50°15' W 001°16'3321.9
2018-Feb-22 08:00N 50°25' W 000°27'1122.4
2018-Feb-22 07:30N 50°28' W 000°11'1122.4
2018-Feb-22 07:00N 50°31' E 000°06'1122.2
2018-Feb-22 06:30N 50°34' E 000°23'1121.7
2018-Feb-22 06:00N 50°39' E 000°39'1121.3
2018-Feb-22 05:30N 50°45' E 000°52'1020.9
2018-Feb-22 05:00N 50°50' E 001°06'1019.8
2018-Feb-22 04:30N 50°56' E 001°20'919.0
2018-Feb-22 04:00N 51°03' E 001°29'1019.3
2018-Feb-22 03:30N 51°10' E 001°39'1019.1
2018-Feb-22 03:00N 51°18' E 001°48'1020.5
2018-Feb-22 02:30N 51°28' E 001°53'1020.3
2018-Feb-22 02:00N 51°37' E 001°47'1019.1
2018-Feb-22 01:30N 51°47' E 001°43'5 9.0
2018-Feb-22 01:00N 51°50' E 001°39'3 6.8
2018-Feb-22 00:30N 51°49' E 001°33'611.4
2018-Feb-22 00:00N 51°44' E 001°30'611.5
2018-Feb-21 23:30N 51°39' E 001°24'611.9
2018-Feb-21 23:00N 51°35' E 001°17'612.5
2018-Feb-21 22:30N 51°32' E 001°08'612.8
2018-Feb-21 22:00N 51°29' E 000°59'510.9
2018-Feb-21 21:30N 51°29' E 000°50'612.2
2018-Feb-21 21:00N 51°30' E 000°41'612.1
2018-Feb-21 20:30N 51°30' E 000°31'1 1.6
2018-Feb-21 20:00N 51°30' E 000°29'0 0.0
2018-Feb-21 19:30N 51°30' E 000°29'0 0.0
2018-Feb-21 19:00N 51°30' E 000°29'0 0.0
2018-Feb-21 18:30N 51°30' E 000°29'0 0.0
2018-Feb-21 18:00N 51°30' E 000°29'0 0.0
2018-Feb-21 17:30N 51°30' E 000°29'0 0.0
2018-Feb-21 17:00N 51°30' E 000°29'0 0.0
2018-Feb-21 16:30N 51°30' E 000°29'0 0.0
2018-Feb-21 16:00N 51°30' E 000°29'0 0.0
2018-Feb-21 15:31N 51°30' E 000°29'0 0.0
2018-Feb-21 15:00N 51°30' E 000°29'0 0.0
2018-Feb-21 14:30N 51°30' E 000°29'0 0.0
2018-Feb-21 14:00N 51°30' E 000°29'0 0.0
2018-Feb-21 13:30N 51°30' E 000°29'0 0.0
2018-Feb-21 13:00N 51°30' E 000°29'0 0.0
2018-Feb-21 12:31N 51°30' E 000°29'0 0.0
2018-Feb-21 12:00N 51°30' E 000°29'0 0.0
2018-Feb-21 11:30N 51°30' E 000°29'0 0.0
2018-Feb-21 11:00N 51°30' E 000°30'0 0.0
2018-Feb-21 10:30N 51°30' E 000°29'0 0.0
2018-Feb-21 10:00N 51°30' E 000°29'0 0.0
2018-Feb-21 09:30N 51°30' E 000°29'0 0.0
2018-Feb-21 09:00N 51°30' E 000°29'0 0.0
2018-Feb-21 08:30N 51°30' E 000°30'2 3.5
2018-Feb-21 08:00N 51°30' E 000°32'5 9.2
2018-Feb-21 07:30N 51°30' E 000°40'611.1
2018-Feb-21 07:00N 51°29' E 000°48'612.5
2018-Feb-21 06:30N 51°29' E 000°58'816.3
2018-Feb-21 06:00N 51°33' E 001°10'816.2
2018-Feb-21 05:30N 51°38' E 001°21'816.4
2018-Feb-21 05:00N 51°44' E 001°29'714.5
2018-Feb-21 04:31N 51°49' E 001°37'4 8.4
2018-Feb-21 04:01N 51°52' E 001°42'4 8.5
2018-Feb-21 03:31N 51°56' E 001°45'713.2
2018-Feb-21 03:00N 52°02' E 001°49'511.0
2018-Feb-21 02:30N 52°06' E 001°55'3 6.8
2018-Feb-21 02:01N 52°07' E 002°01'1 2.0
2018-Feb-21 01:30N 52°08' E 001°59'510.6
2018-Feb-21 01:00N 52°11' E 002°06'1 2.1
2018-Feb-21 00:30N 52°10' E 002°07'54 9.3
2018-Feb-20 18:42N 52°46' E 003°12'2 8.6
2018-Feb-20 18:29N 52°47' E 003°15'4 8.4
2018-Feb-20 17:59N 52°49' E 003°22'30 9.1
2018-Feb-20 14:43N 53°02' E 004°06'210.2
2018-Feb-20 14:30N 53°03' E 004°09'510.3
2018-Feb-20 14:00N 53°07' E 004°15'24 9.9
2018-Feb-20 11:36N 53°27' E 004°37'410.4
2018-Feb-20 11:14N 53°28' E 004°43'312.9
2018-Feb-20 11:00N 53°30' E 004°47'1915.3
2018-Feb-20 09:47N 53°37' E 005°16'1217.8
2018-Feb-20 09:07N 53°42' E 005°34'217.9
2018-Feb-20 08:59N 53°43' E 005°38'8317.8
2018-Feb-20 04:18N 53°51' E 007°58'516.0
2018-Feb-20 03:59N 53°50' E 008°06'815.9
2018-Feb-20 03:30N 53°44' E 008°15'714.3
2018-Feb-20 03:00N 53°39' E 008°24'511.0
2018-Feb-20 02:31N 53°36' E 008°31'1 1.3
2018-Feb-20 02:00N 53°35' E 008°32'0 0.0
2018-Feb-20 01:28N 53°35' E 008°32'0 0.0
2018-Feb-20 00:58N 53°35' E 008°32'0 0.0
2018-Feb-20 00:28N 53°35' E 008°32'0 0.0
2018-Feb-19 23:58N 53°35' E 008°32'0 0.0
2018-Feb-19 23:28N 53°35' E 008°32'0 0.0
2018-Feb-19 22:58N 53°35' E 008°32'0 0.0
2018-Feb-19 22:28N 53°35' E 008°32'0 0.0
2018-Feb-19 21:58N 53°35' E 008°32'0 0.0
2018-Feb-19 21:25N 53°35' E 008°32'0 0.0
2018-Feb-19 20:58N 53°35' E 008°32'0 0.0
2018-Feb-19 20:28N 53°35' E 008°32'0 0.0
2018-Feb-19 19:58N 53°35' E 008°32'0 0.0
2018-Feb-19 19:28N 53°35' E 008°32'0 0.0
2018-Feb-19 18:58N 53°35' E 008°32'0 0.0
2018-Feb-19 18:28N 53°35' E 008°32'0 0.0
2018-Feb-19 17:58N 53°35' E 008°32'0 0.0
2018-Feb-19 17:28N 53°35' E 008°32'0 0.0
2018-Feb-19 16:58N 53°35' E 008°32'0 0.0
2018-Feb-19 16:28N 53°35' E 008°32'0 0.0
2018-Feb-19 15:58N 53°35' E 008°32'0 0.0
2018-Feb-19 15:28N 53°35' E 008°32'0 0.0
2018-Feb-19 14:58N 53°35' E 008°32'0 0.0
2018-Feb-19 14:28N 53°35' E 008°32'0 0.0
2018-Feb-19 13:58N 53°35' E 008°32'0 0.0
2018-Feb-19 13:28N 53°35' E 008°32'0 0.0
2018-Feb-19 12:58N 53°35' E 008°32'0 0.0
2018-Feb-19 12:28N 53°35' E 008°32'0 0.0
2018-Feb-19 11:58N 53°35' E 008°32'0 0.0
2018-Feb-19 11:28N 53°35' E 008°32'0 0.0
2018-Feb-19 10:58N 53°35' E 008°32'0 0.0
2018-Feb-19 10:28N 53°35' E 008°32'0 0.0
2018-Feb-19 09:58N 53°35' E 008°32'0 0.0
2018-Feb-19 09:28N 53°35' E 008°32'1 2.6
2018-Feb-19 09:01N 53°36' E 008°30'510.7
2018-Feb-19 08:30N 53°39' E 008°24'816.1
2018-Feb-19 08:00N 53°45' E 008°13'816.5
2018-Feb-19 07:30N 53°50' E 008°03'915.3
2018-Feb-19 06:56N 53°53' E 007°49'15 1.5
2018-Feb-18 21:07N 54°02' E 007°29'0 0.0
2018-Feb-18 20:43N 54°02' E 007°29'0 0.0
2018-Feb-18 11:04N 54°02' E 007°29'0 0.0
2018-Feb-18 10:58N 54°02' E 007°29'0 0.0
2018-Feb-18 10:25N 54°02' E 007°29'0 0.0
2018-Feb-18 09:46N 54°02' E 007°29'88 2.4
2018-Feb-16 20:47N 53°32' E 005°10'716.7
2018-Feb-16 20:21N 53°29' E 004°59'616.6
2018-Feb-16 20:00N 53°26' E 004°51'1615.4
2018-Feb-16 18:58N 53°14' E 004°34'716.3
2018-Feb-16 18:30N 53°07' E 004°28'816.5
2018-Feb-16 18:00N 52°60' E 004°21'816.0
2018-Feb-16 17:28N 52°52' E 004°15'816.2
2018-Feb-16 17:00N 52°46' E 004°07'1016.0
2018-Feb-16 16:24N 52°39' E 003°57'716.1
2018-Feb-16 15:58N 52°34' E 003°49'816.2
2018-Feb-16 15:27N 52°27' E 003°40'816.4
2018-Feb-16 14:59N 52°21' E 003°32'816.5
2018-Feb-16 14:30N 52°15' E 003°24'916.4
2018-Feb-16 13:56N 52°08' E 003°14'1115.1
2018-Feb-16 13:11N 51°58' E 003°05'515.1
2018-Feb-16 12:52N 51°53' E 003°06'514.1
2018-Feb-16 12:30N 51°49' E 003°10'713.9
2018-Feb-16 12:00N 51°44' E 003°17'5 9.7
2018-Feb-16 11:30N 51°39' E 003°20'611.7
2018-Feb-16 11:00N 51°34' E 003°25'612.5
2018-Feb-16 10:30N 51°29' E 003°30'5 8.9
2018-Feb-16 10:00N 51°26' E 003°36'4 8.6
2018-Feb-16 09:30N 51°25' E 003°42'713.3
2018-Feb-16 09:00N 51°21' E 003°50'713.5
2018-Feb-16 08:30N 51°25' E 003°58'611.3
2018-Feb-16 08:01N 51°22' E 004°05'510.5
2018-Feb-16 07:30N 51°22' E 004°14'2 4.4
2018-Feb-16 07:01N 51°20' E 004°17'0 0.0
2018-Feb-16 06:26N 51°20' E 004°17'0 0.0
2018-Feb-16 06:01N 51°20' E 004°17'0 0.0
2018-Feb-16 05:22N 51°20' E 004°17'0 0.0
2018-Feb-16 04:59N 51°20' E 004°17'0 0.0
2018-Feb-16 04:31N 51°20' E 004°17'0 0.0
2018-Feb-16 04:00N 51°20' E 004°17'0 0.0
2018-Feb-16 03:31N 51°20' E 004°17'0 0.0
2018-Feb-16 03:00N 51°20' E 004°17'0 0.0
2018-Feb-16 02:28N 51°20' E 004°17'0 0.0
2018-Feb-16 02:00N 51°20' E 004°17'0 0.0
2018-Feb-16 01:30N 51°20' E 004°17'0 0.0
2018-Feb-16 00:55N 51°20' E 004°17'0 0.0
2018-Feb-16 00:30N 51°20' E 004°17'0 0.0
2018-Feb-16 00:01N 51°20' E 004°17'0 0.0
2018-Feb-15 23:28N 51°20' E 004°17'0 0.0
2018-Feb-15 23:00N 51°20' E 004°17'0 0.0
2018-Feb-15 22:30N 51°20' E 004°17'0 0.0
2018-Feb-15 22:00N 51°20' E 004°17'0 0.0
2018-Feb-15 21:29N 51°20' E 004°17'0 0.0
2018-Feb-15 20:59N 51°20' E 004°17'0 0.0
2018-Feb-15 20:27N 51°20' E 004°17'0 0.0
2018-Feb-15 19:51N 51°20' E 004°17'0 0.0
2018-Feb-15 19:31N 51°20' E 004°17'0 0.0
2018-Feb-15 19:00N 51°20' E 004°17'0 0.0
2018-Feb-15 18:30N 51°20' E 004°17'0 0.0
2018-Feb-15 17:58N 51°20' E 004°17'0 0.0
2018-Feb-15 17:24N 51°20' E 004°17'0 0.0
2018-Feb-15 17:00N 51°20' E 004°17'0 0.0
2018-Feb-15 16:31N 51°20' E 004°17'0 0.0
2018-Feb-15 16:01N 51°20' E 004°17'0 0.0
2018-Feb-15 15:24N 51°20' E 004°17'0 0.0
2018-Feb-15 14:58N 51°20' E 004°17'0 0.0
2018-Feb-15 14:27N 51°20' E 004°17'0 0.0
2018-Feb-15 13:59N 51°20' E 004°17'0 0.0
2018-Feb-15 13:26N 51°20' E 004°17'0 0.0
2018-Feb-15 13:00N 51°20' E 004°17'0 0.0
2018-Feb-15 12:30N 51°20' E 004°17'0 0.0
2018-Feb-15 12:00N 51°20' E 004°17'  

Dump ship's entire track history